Time;durP1;ratioP1;P1;durP2;ratioP2;P2;SDS_P1;SDS_P2;PMS_P1;PMS_P2;Temp;Humidity;BMP_temperature;BMP_pressure;BME280_temperature;BME280_humidity;BME280_pressure;Samples;Min_cycle;Max_cycle;Signal;HPM_P1;HPM_P2
2022/03/14 00:00:09;;;;;;;;;10.00;8.00;;;;;-146.03;100.00;60875.16;5015723;28;45567;-88
2022/03/14 00:02:35;;;;;;;;;25.75;21.50;;;;;-146.03;100.00;60875.16;5005130;28;45827;-87
2022/03/14 00:05:05;;;;;;;;;26.50;23.25;;;;;-146.03;100.00;60875.16;5017162;28;45504;-87
2022/03/14 00:07:31;;;;;;;;;10.75;8.25;;;;;-146.03;100.00;60875.16;5013588;28;45334;-86
2022/03/14 00:09:57;;;;;;;;;23.75;23.25;;;;;-146.03;100.00;60875.16;5013666;28;47976;-85
2022/03/14 00:12:25;;;;;;;;;17.50;16.25;;;;;-146.03;100.00;60875.16;5015325;28;46031;-85
2022/03/14 00:14:53;;;;;;;;;13.75;13.75;;;;;-146.03;100.00;60875.16;5016101;28;45375;-84
2022/03/14 00:17:19;;;;;;;;;19.75;18.50;;;;;-146.03;100.00;60875.16;4999261;28;45688;-84
2022/03/14 00:19:47;;;;;;;;;20.00;16.00;;;;;-146.03;100.00;60875.16;5016050;28;46545;-85
2022/03/14 00:22:13;;;;;;;;;28.75;23.75;;;;;-146.03;100.00;60875.16;5015891;28;45399;-85
2022/03/14 00:24:38;;;;;;;;;22.50;21.00;;;;;-146.03;100.00;60875.16;5014763;28;45516;-85
2022/03/14 00:27:05;;;;;;;;;11.75;9.50;;;;;-146.03;100.00;60875.16;5015293;28;49232;-85
2022/03/14 00:29:30;;;;;;;;;25.25;19.00;;;;;-146.03;100.00;60875.16;4998834;28;47432;-84
2022/03/14 00:31:56;;;;;;;;;17.75;14.25;;;;;-146.03;100.00;60875.16;5016641;28;45431;-84
2022/03/14 00:34:21;;;;;;;;;20.25;16.50;;;;;-146.03;100.00;60875.16;5016875;28;45536;-84
2022/03/14 00:36:47;;;;;;;;;12.00;12.00;;;;;-146.03;100.00;60875.16;5016108;28;46511;-84
2022/03/14 00:39:12;;;;;;;;;7.50;7.50;;;;;-146.03;100.00;60875.16;5016398;28;45506;-84
2022/03/14 00:41:37;;;;;;;;;7.75;6.00;;;;;-146.03;100.00;60875.16;5016596;28;45474;-85
2022/03/14 00:44:03;;;;;;;;;6.25;6.25;;;;;-146.03;100.00;60875.16;5017036;28;45699;-84
2022/03/14 00:46:28;;;;;;;;;5.00;5.00;;;;;-146.03;100.00;60875.16;5015446;28;46840;-84
2022/03/14 00:48:55;;;;;;;;;3.00;3.00;;;;;-146.03;100.00;60875.16;4998341;28;48276;-86
2022/03/14 00:51:20;;;;;;;;;5.00;3.75;;;;;-146.03;100.00;60875.16;4998624;28;45908;-85
2022/03/14 00:53:45;;;;;;;;;6.25;6.25;;;;;-146.03;100.00;60875.16;5014769;28;45319;-86
2022/03/14 00:56:12;;;;;;;;;4.00;4.00;;;;;-146.03;100.00;60875.16;5015838;28;45513;-86
2022/03/14 00:58:37;;;;;;;;;5.25;4.00;;;;;-146.03;100.00;60875.16;5016948;28;46543;-85
2022/03/14 01:01:03;;;;;;;;;3.75;3.75;;;;;-146.03;100.00;60875.16;5008710;28;45477;-85
2022/03/14 01:03:28;;;;;;;;;5.50;3.50;;;;;-146.03;100.00;60875.16;5012106;28;45515;-85
2022/03/14 01:05:54;;;;;;;;;4.00;4.00;;;;;-146.03;100.00;60875.16;5010161;28;45510;-85
2022/03/14 01:08:19;;;;;;;;;5.00;5.00;;;;;-146.03;100.00;60875.16;4984203;28;47001;-85
2022/03/14 01:10:47;;;;;;;;;5.25;4.00;;;;;-146.03;100.00;60875.16;4993005;28;45490;-86
2022/03/14 01:13:13;;;;;;;;;7.00;5.00;;;;;-146.03;100.00;60875.16;5012894;28;45705;-85
2022/03/14 01:15:38;;;;;;;;;8.50;7.00;;;;;-146.03;100.00;60875.16;5012487;28;45509;-85
2022/03/14 01:18:05;;;;;;;;;3.00;2.00;;;;;-146.03;100.00;60875.16;4995159;28;48502;-85
2022/03/14 01:20:31;;;;;;;;;5.50;4.00;;;;;-146.03;100.00;60875.16;5011875;28;45549;-85
2022/03/14 01:22:57;;;;;;;;;6.00;3.25;;;;;-146.03;100.00;60875.16;5012513;28;45637;-85
2022/03/14 01:25:26;;;;;;;;;6.00;4.75;;;;;-146.03;100.00;60875.16;5011455;28;46361;-86
2022/03/14 01:27:52;;;;;;;;;11.00;8.00;;;;;-146.03;100.00;60875.16;4991416;28;45589;-87
2022/03/14 01:30:19;;;;;;;;;9.75;8.50;;;;;-146.03;100.00;60875.16;4992555;28;46041;-86
2022/03/14 01:32:45;;;;;;;;;7.75;5.00;;;;;-146.03;100.00;60875.16;5010201;28;45347;-87
2022/03/14 01:35:10;;;;;;;;;3.25;3.25;;;;;-146.03;100.00;60875.16;5012397;28;46035;-85
2022/03/14 01:37:36;;;;;;;;;12.00;10.00;;;;;-146.03;100.00;60875.16;5009435;28;45447;-86
2022/03/14 01:40:01;;;;;;;;;10.25;10.25;;;;;-146.03;100.00;60875.16;5011144;28;45877;-87
2022/03/14 01:42:26;;;;;;;;;20.25;18.50;;;;;-146.03;100.00;60875.16;5009394;28;45461;-86
2022/03/14 01:44:52;;;;;;;;;20.50;19.00;;;;;-146.03;100.00;60875.16;4985972;28;45533;-87
2022/03/14 01:47:18;;;;;;;;;6.00;6.00;;;;;-146.03;100.00;60875.16;5012776;28;46014;-86
2022/03/14 01:49:45;;;;;;;;;5.50;4.25;;;;;-146.03;100.00;60875.16;4989355;28;45738;-86
2022/03/14 01:52:11;;;;;;;;;5.00;4.00;;;;;-146.03;100.00;60875.16;5013466;28;45478;-85
2022/03/14 01:54:37;;;;;;;;;2.50;2.50;;;;;-146.03;100.00;60875.16;5010407;28;45438;-86
2022/03/14 01:57:05;;;;;;;;;3.50;2.50;;;;;-146.03;100.00;60875.16;4995514;28;47253;-86
2022/03/14 01:59:30;;;;;;;;;3.00;3.00;;;;;-146.03;100.00;60875.16;5014144;28;45447;-86
2022/03/14 02:01:56;;;;;;;;;3.00;3.00;;;;;-146.03;100.00;60875.16;4990127;28;45349;-85
2022/03/14 02:04:22;;;;;;;;;6.50;5.75;;;;;-146.03;100.00;60875.16;5009929;28;45489;-86
2022/03/14 02:06:49;;;;;;;;;4.00;2.25;;;;;-146.03;100.00;60875.16;5013263;28;46072;-86
2022/03/14 02:09:14;;;;;;;;;3.00;3.00;;;;;-146.03;100.00;60875.16;5014369;28;45414;-85
2022/03/14 02:11:50;;;;;;;;;5.00;4.00;;;;;-146.03;100.00;60875.16;5009031;28;45407;-86
2022/03/14 02:14:15;;;;;;;;;6.75;5.50;;;;;-146.03;100.00;60875.16;5011849;28;45529;-87
2022/03/14 02:16:41;;;;;;;;;4.75;2.50;;;;;-146.03;100.00;60875.16;5013870;28;47206;-86
2022/03/14 02:19:06;;;;;;;;;2.25;2.25;;;;;-146.03;100.00;60875.16;5012016;28;45830;-87
2022/03/14 02:21:31;;;;;;;;;3.75;3.75;;;;;-146.03;100.00;60875.16;4988270;28;45520;-85
2022/03/14 02:23:57;;;;;;;;;3.75;3.75;;;;;-146.03;100.00;60875.16;5008431;28;45418;-85
2022/03/14 02:26:22;;;;;;;;;3.50;3.50;;;;;-146.03;100.00;60875.16;5010619;28;46106;-86
2022/03/14 02:28:47;;;;;;;;;3.00;3.00;;;;;-146.03;100.00;60875.16;5013991;28;45544;-86
2022/03/14 02:31:13;;;;;;;;;4.25;3.00;;;;;-146.03;100.00;60875.16;4996515;28;45395;-86
2022/03/14 02:33:38;;;;;;;;;3.00;3.00;;;;;-146.03;100.00;60875.16;5013424;28;45434;-85
2022/03/14 02:36:05;;;;;;;;;6.00;3.25;;;;;-146.03;100.00;60875.16;5008209;28;45498;-85
2022/03/14 02:38:30;;;;;;;;;3.00;3.00;;;;;-146.03;100.00;60875.16;5007092;28;45359;-86
2022/03/14 02:40:55;;;;;;;;;3.00;3.00;;;;;-146.03;100.00;60875.16;5008845;28;45463;-86
2022/03/14 02:43:24;;;;;;;;;3.25;3.25;;;;;-146.03;100.00;60875.16;5008276;28;48892;-86
2022/03/14 02:45:51;;;;;;;;;2.50;2.50;;;;;-146.03;100.00;60875.16;4996057;28;48377;-85
2022/03/14 02:48:17;;;;;;;;;4.00;4.00;;;;;-146.03;100.00;60875.16;5009538;28;45520;-86
2022/03/14 02:50:43;;;;;;;;;6.00;4.25;;;;;-146.03;100.00;60875.16;5007849;28;45416;-85
2022/03/14 02:53:11;;;;;;;;;5.00;4.00;;;;;-146.03;100.00;60875.16;5011673;28;45458;-86
2022/03/14 02:55:37;;;;;;;;;4.50;4.00;;;;;-146.03;100.00;60875.16;4990855;28;48663;-86
2022/03/14 02:58:03;;;;;;;;;5.50;2.50;;;;;-146.03;100.00;60875.16;5013124;28;45493;-85
2022/03/14 03:00:28;;;;;;;;;3.75;3.00;;;;;-146.03;100.00;60875.16;5013702;28;48312;-86
2022/03/14 03:02:55;;;;;;;;;6.25;6.25;;;;;-146.03;100.00;60875.16;5013928;28;45552;-86
2022/03/14 03:05:20;;;;;;;;;4.00;4.00;;;;;-146.03;100.00;60875.16;5013780;28;45955;-84
2022/03/14 03:07:48;;;;;;;;;3.50;3.50;;;;;-146.03;100.00;60875.16;5014454;28;45431;-84
2022/03/14 03:10:17;;;;;;;;;3.00;3.00;;;;;-146.03;100.00;60875.16;5013313;28;45508;-84
2022/03/14 03:12:43;;;;;;;;;5.00;3.75;;;;;-146.03;100.00;60875.16;4995968;28;45447;-84
2022/03/14 03:15:08;;;;;;;;;5.00;3.50;;;;;-146.03;100.00;60875.16;5014099;28;45543;-83
2022/03/14 03:17:34;;;;;;;;;3.00;2.00;;;;;-146.03;100.00;60875.16;5013269;28;45599;-85
2022/03/14 03:19:59;;;;;;;;;4.00;4.00;;;;;-146.03;100.00;60875.16;5014398;28;45427;-84
2022/03/14 03:22:26;;;;;;;;;3.25;2.50;;;;;-146.03;100.00;60875.16;4988776;28;45363;-84
2022/03/14 03:24:52;;;;;;;;;4.00;3.00;;;;;-146.03;100.00;60875.16;5013389;28;45631;-85
2022/03/14 03:27:17;;;;;;;;;3.50;3.00;;;;;-146.03;100.00;60875.16;5013107;28;45581;-86
2022/03/14 03:29:42;;;;;;;;;4.00;3.25;;;;;-146.03;100.00;60875.16;5013599;28;45601;-86
2022/03/14 03:32:08;;;;;;;;;5.00;3.75;;;;;-146.03;100.00;60875.16;5013580;28;46049;-85
2022/03/14 03:34:34;;;;;;;;;3.75;3.75;;;;;-146.03;100.00;60875.16;5002659;28;45440;-85
2022/03/14 03:36:59;;;;;;;;;4.50;4.50;;;;;-146.03;100.00;60875.16;5009156;28;45306;-84
2022/03/14 03:39:24;;;;;;;;;4.25;4.25;;;;;-146.03;100.00;60875.16;5012823;28;45925;-85
2022/03/14 03:41:50;;;;;;;;;4.00;3.00;;;;;-146.03;100.00;60875.16;5013511;28;45513;-85
2022/03/14 03:44:15;;;;;;;;;4.25;2.75;;;;;-146.03;100.00;60875.16;5013587;28;46464;-85
2022/03/14 03:46:40;;;;;;;;;5.75;5.75;;;;;-146.03;100.00;60875.16;5013573;28;45513;-85
2022/03/14 03:49:06;;;;;;;;;3.75;3.00;;;;;-146.03;100.00;60875.16;5012911;28;47084;-85
2022/03/14 03:51:31;;;;;;;;;5.00;3.50;;;;;-146.03;100.00;60875.16;5013357;28;45383;-84
2022/03/14 03:53:57;;;;;;;;;5.25;4.00;;;;;-146.03;100.00;60875.16;5012696;28;51302;-85
2022/03/14 03:56:22;;;;;;;;;3.50;3.50;;;;;-146.03;100.00;60875.16;5013602;28;45288;-85
2022/03/14 03:58:48;;;;;;;;;4.00;2.00;;;;;-146.03;100.00;60875.16;5013503;28;45461;-85
2022/03/14 04:01:19;;;;;;;;;4.25;4.00;;;;;-146.03;100.00;60875.16;5014957;28;45521;-85
2022/03/14 04:03:46;;;;;;;;;2.25;1.75;;;;;-146.03;100.00;60875.16;5016461;28;46635;-84
2022/03/14 04:06:12;;;;;;;;;4.75;4.00;;;;;-146.03;100.00;60875.16;5016587;28;48231;-85
2022/03/14 04:08:39;;;;;;;;;3.00;3.00;;;;;-146.03;100.00;60875.16;5016254;28;45488;-84
2022/03/14 04:11:06;;;;;;;;;3.00;3.00;;;;;-146.03;100.00;60875.16;5013462;28;45387;-85
2022/03/14 04:13:32;;;;;;;;;3.00;3.00;;;;;-146.03;100.00;60875.16;5016721;28;45987;-86
2022/03/14 04:15:58;;;;;;;;;3.50;3.50;;;;;-146.03;100.00;60875.16;5016320;28;45628;-86
2022/03/14 04:18:25;;;;;;;;;3.50;3.25;;;;;-146.03;100.00;60875.16;5015762;28;45450;-87
2022/03/14 04:20:51;;;;;;;;;2.00;2.00;;;;;-146.03;100.00;60875.16;5002809;28;45475;-87
2022/03/14 04:23:17;;;;;;;;;5.25;3.00;;;;;-146.03;100.00;60875.16;5016010;28;45537;-86
2022/03/14 04:25:44;;;;;;;;;3.00;2.00;;;;;-146.03;100.00;60875.16;5016936;28;45450;-87
2022/03/14 04:28:10;;;;;;;;;4.75;3.50;;;;;-146.03;100.00;60875.16;5015918;28;45494;-86
2022/03/14 04:30:36;;;;;;;;;6.00;4.75;;;;;-146.03;100.00;60875.16;5016027;28;45735;-87
2022/03/14 04:33:01;;;;;;;;;4.75;4.00;;;;;-146.03;100.00;60875.16;5015999;28;45541;-86
2022/03/14 04:35:27;;;;;;;;;5.50;3.75;;;;;-146.03;100.00;60875.16;5016275;28;45549;-86
2022/03/14 04:37:52;;;;;;;;;7.25;4.00;;;;;-146.03;100.00;60875.16;5016101;28;45395;-86
2022/03/14 04:40:18;;;;;;;;;6.50;3.50;;;;;-146.03;100.00;60875.16;5015919;28;45510;-86
2022/03/14 04:42:43;;;;;;;;;7.00;2.75;;;;;-146.03;100.00;60875.16;5015893;28;45521;-86
2022/03/14 04:45:09;;;;;;;;;5.50;3.75;;;;;-146.03;100.00;60875.16;5015999;28;45485;-86
2022/03/14 04:47:35;;;;;;;;;3.75;3.75;;;;;-146.03;100.00;60875.16;5016229;28;45406;-86
2022/03/14 04:50:01;;;;;;;;;3.00;3.00;;;;;-146.03;100.00;60875.16;5015806;28;45659;-86
2022/03/14 04:52:29;;;;;;;;;5.00;5.00;;;;;-146.03;100.00;60875.16;5015409;28;45468;-86
2022/03/14 04:54:56;;;;;;;;;6.50;4.25;;;;;-146.03;100.00;60875.16;4998051;28;45529;-85
2022/03/14 04:57:22;;;;;;;;;3.50;3.50;;;;;-146.03;100.00;60875.16;5015487;28;46272;-86
2022/03/14 04:59:47;;;;;;;;;4.75;3.25;;;;;-146.03;100.00;60875.16;5015397;28;45525;-85
2022/03/14 05:02:12;;;;;;;;;5.00;4.25;;;;;-146.03;100.00;60875.16;5015807;28;46440;-85
2022/03/14 05:04:38;;;;;;;;;3.25;3.25;;;;;-146.03;100.00;60875.16;5016084;28;45470;-86
2022/03/14 05:07:06;;;;;;;;;5.00;4.75;;;;;-146.03;100.00;60875.16;5014962;28;45458;-86
2022/03/14 05:09:32;;;;;;;;;5.25;2.00;;;;;-146.03;100.00;60875.16;5015796;28;45383;-86
2022/03/14 05:11:57;;;;;;;;;4.25;4.25;;;;;-146.03;100.00;60875.16;5015461;28;58803;-87
2022/03/14 05:14:22;;;;;;;;;3.00;3.00;;;;;-146.03;100.00;60875.16;5016268;28;45525;-86
2022/03/14 05:16:48;;;;;;;;;4.50;4.50;;;;;-146.03;100.00;60875.16;5021426;28;45403;-87
2022/03/14 05:19:13;;;;;;;;;3.50;3.50;;;;;-146.03;100.00;60875.16;5020111;28;45450;-86
2022/03/14 05:21:39;;;;;;;;;3.00;3.00;;;;;-146.03;100.00;60875.16;5022291;28;45454;-87
2022/03/14 05:24:05;;;;;;;;;10.75;6.50;;;;;-146.03;100.00;60875.16;5020530;28;45387;-87
2022/03/14 05:26:31;;;;;;;;;6.25;5.00;;;;;-146.03;100.00;60875.16;4999941;28;45379;-87
2022/03/14 05:28:57;;;;;;;;;4.75;4.75;;;;;-146.03;100.00;60875.16;5016337;28;47038;-87
2022/03/14 05:31:23;;;;;;;;;4.25;3.00;;;;;-146.03;100.00;60875.16;5015673;28;47170;-87
2022/03/14 05:33:48;;;;;;;;;4.75;3.50;;;;;-146.03;100.00;60875.16;5015214;28;45458;-87
2022/03/14 05:36:14;;;;;;;;;5.00;4.00;;;;;-146.03;100.00;60875.16;4998288;28;45449;-87
2022/03/14 05:38:40;;;;;;;;;5.75;4.75;;;;;-146.03;100.00;60875.16;4997601;28;45635;-87
2022/03/14 05:41:05;;;;;;;;;7.00;5.00;;;;;-146.03;100.00;60875.16;5016528;28;45403;-87
2022/03/14 05:43:36;;;;;;;;;3.00;3.00;;;;;-146.03;100.00;60875.16;5015618;28;45824;-87
2022/03/14 05:46:06;;;;;;;;;6.50;5.50;;;;;-146.03;100.00;60875.16;5015584;28;45593;-87
2022/03/14 05:48:32;;;;;;;;;5.75;4.75;;;;;-146.03;100.00;60875.16;5014286;28;45457;-87
2022/03/14 05:50:58;;;;;;;;;6.00;5.25;;;;;-146.03;100.00;60875.16;4996179;28;47334;-87
2022/03/14 05:53:23;;;;;;;;;4.75;4.75;;;;;-146.03;100.00;60875.16;5015739;28;45453;-87
2022/03/14 05:55:49;;;;;;;;;7.00;4.75;;;;;-146.03;100.00;60875.16;5016459;28;45386;-87
2022/03/14 05:58:14;;;;;;;;;4.25;4.25;;;;;-146.03;100.00;60875.16;4997334;28;45579;-87
2022/03/14 06:00:39;;;;;;;;;3.50;3.50;;;;;-146.03;100.00;60875.16;4995983;28;47124;-86
2022/03/14 06:03:05;;;;;;;;;7.00;6.00;;;;;-146.03;100.00;60875.16;5015027;28;45534;-85
2022/03/14 06:05:30;;;;;;;;;7.75;5.50;;;;;-146.03;100.00;60875.16;5015811;28;45419;-85
2022/03/14 06:07:56;;;;;;;;;11.00;7.00;;;;;-146.03;100.00;60875.16;5015565;28;45493;-84
2022/03/14 06:10:21;;;;;;;;;4.00;4.00;;;;;-146.03;100.00;60875.16;5013996;28;46192;-85
2022/03/14 06:12:47;;;;;;;;;4.25;4.25;;;;;-146.03;100.00;60875.16;4996372;28;45537;-85
2022/03/14 06:15:13;;;;;;;;;5.50;5.00;;;;;-146.03;100.00;60875.16;5014433;28;45555;-85
2022/03/14 06:17:42;;;;;;;;;5.00;5.00;;;;;-146.03;100.00;60875.16;5014031;28;45465;-86
2022/03/14 06:20:09;;;;;;;;;7.75;5.50;;;;;-146.03;100.00;60875.16;5014127;28;45485;-83
2022/03/14 06:22:40;;;;;;;;;8.25;5.25;;;;;-146.03;100.00;60875.16;5014844;28;45415;-82
2022/03/14 06:25:06;;;;;;;;;7.50;5.25;;;;;-146.03;100.00;60875.16;5013819;28;45601;-82
2022/03/14 06:27:32;;;;;;;;;5.00;5.00;;;;;-146.03;100.00;60875.16;5014637;28;45513;-82
2022/03/14 06:29:57;;;;;;;;;10.00;7.25;;;;;-146.03;100.00;60875.16;5013479;28;46358;-82
2022/03/14 06:32:22;;;;;;;;;6.00;6.00;;;;;-146.03;100.00;60875.16;5013743;28;45433;-82
2022/03/14 06:34:47;;;;;;;;;10.50;7.00;;;;;-146.03;100.00;60875.16;5014748;28;45522;-82
2022/03/14 06:37:13;;;;;;;;;9.50;7.25;;;;;-146.03;100.00;60875.16;4993622;28;45358;-82
2022/03/14 06:39:39;;;;;;;;;6.75;5.50;;;;;-146.03;100.00;60875.16;5013083;28;45563;-82
2022/03/14 06:42:09;;;;;;;;;7.00;7.00;;;;;-146.03;100.00;60875.16;5014269;28;45463;-81
2022/03/14 06:44:40;;;;;;;;;9.25;5.50;;;;;-146.03;100.00;60875.16;5014043;28;45908;-82
2022/03/14 06:47:11;;;;;;;;;8.25;6.25;;;;;-146.03;100.00;60875.16;5010447;28;45497;-80
2022/03/14 06:49:37;;;;;;;;;6.50;6.00;;;;;-146.03;100.00;60875.16;5013740;28;47322;-81
2022/03/14 06:52:04;;;;;;;;;9.00;7.00;;;;;-146.03;100.00;60875.16;4996208;28;45525;-81
2022/03/14 06:54:30;;;;;;;;;5.00;5.00;;;;;-146.03;100.00;60875.16;5014180;28;45446;-82
2022/03/14 06:56:55;;;;;;;;;9.25;7.00;;;;;-146.03;100.00;60875.16;5013953;28;45417;-83
2022/03/14 06:59:21;;;;;;;;;8.00;8.00;;;;;-146.03;100.00;60875.16;5013471;28;46146;-82
2022/03/14 07:01:46;;;;;;;;;8.50;7.25;;;;;-146.03;100.00;60875.16;5013646;28;45406;-84
2022/03/14 07:04:12;;;;;;;;;6.25;6.25;;;;;-146.03;100.00;60875.16;4995700;28;45301;-83
2022/03/14 07:06:37;;;;;;;;;6.00;6.00;;;;;-146.03;100.00;60875.16;5014094;28;45426;-84
2022/03/14 07:09:04;;;;;;;;;8.75;6.25;;;;;-146.03;100.00;60875.16;5013627;28;46224;-85
2022/03/14 07:11:30;;;;;;;;;6.75;6.25;;;;;-146.03;100.00;60875.16;5013767;28;45264;-84
2022/03/14 07:13:55;;;;;;;;;6.25;5.50;;;;;-146.03;100.00;60875.16;5013825;28;45405;-83
2022/03/14 07:16:20;;;;;;;;;9.75;6.00;;;;;-146.03;100.00;60875.16;5012406;28;45427;-84
2022/03/14 07:18:46;;;;;;;;;8.00;8.00;;;;;-146.03;100.00;60875.16;5013826;28;45927;-85
2022/03/14 07:21:11;;;;;;;;;8.50;7.50;;;;;-146.03;100.00;60875.16;5013889;28;45891;-83
2022/03/14 07:23:38;;;;;;;;;9.75;8.75;;;;;-146.03;100.00;60875.16;5015002;28;45313;-84
2022/03/14 07:26:04;;;;;;;;;7.25;7.25;;;;;-146.03;100.00;60875.16;5010244;28;45500;-81
2022/03/14 07:28:29;;;;;;;;;5.25;5.25;;;;;-146.03;100.00;60875.16;5013873;28;46154;-81
2022/03/14 07:30:54;;;;;;;;;10.00;8.50;;;;;-146.03;100.00;60875.16;4993666;28;45541;-81
2022/03/14 07:33:20;;;;;;;;;9.50;8.25;;;;;-146.03;100.00;60875.16;5014000;28;45483;-82
2022/03/14 07:35:46;;;;;;;;;10.75;6.75;;;;;-146.03;100.00;60875.16;5014932;28;45570;-81
2022/03/14 07:38:11;;;;;;;;;9.50;7.25;;;;;-146.03;100.00;60875.16;5017734;28;45350;-82
2022/03/14 07:40:37;;;;;;;;;6.50;6.00;;;;;-146.03;100.00;60875.16;5016647;28;46816;-82
2022/03/14 07:43:03;;;;;;;;;10.75;9.00;;;;;-146.03;100.00;60875.16;5017978;28;45650;-81
2022/03/14 07:45:29;;;;;;;;;6.50;6.00;;;;;-146.03;100.00;60875.16;4997883;28;45455;-83
2022/03/14 07:47:56;;;;;;;;;7.75;6.25;;;;;-146.03;100.00;60875.16;5016333;28;45774;-84
2022/03/14 07:50:22;;;;;;;;;8.25;6.75;;;;;-146.03;100.00;60875.16;5016498;28;46095;-83
2022/03/14 07:52:48;;;;;;;;;9.75;6.00;;;;;-146.03;100.00;60875.16;4996896;28;45662;-83
2022/03/14 07:55:13;;;;;;;;;7.50;7.50;;;;;-146.03;100.00;60875.16;5017312;28;45394;-83
2022/03/14 07:57:40;;;;;;;;;5.50;5.50;;;;;-146.03;100.00;60875.16;5016646;28;45552;-82
2022/03/14 08:00:11;;;;;;;;;15.75;15.75;;;;;-146.03;100.00;60875.16;5016082;28;45399;-83
2022/03/14 08:02:37;;;;;;;;;8.75;7.25;;;;;-146.03;100.00;60875.16;5014094;28;45612;-83
2022/03/14 08:05:07;;;;;;;;;10.50;7.25;;;;;-146.03;100.00;60875.16;5017228;28;45628;-82
2022/03/14 08:07:34;;;;;;;;;9.50;7.00;;;;;-146.03;100.00;60875.16;5016582;28;45627;-82
2022/03/14 08:10:00;;;;;;;;;9.00;8.50;;;;;-146.03;100.00;60875.16;4996932;28;45784;-82
2022/03/14 08:12:25;;;;;;;;;6.25;6.25;;;;;-146.03;100.00;60875.16;5016548;28;45415;-82
2022/03/14 08:14:50;;;;;;;;;10.25;9.00;;;;;-146.03;100.00;60875.16;5015314;28;45581;-82
2022/03/14 08:17:19;;;;;;;;;7.00;7.00;;;;;-146.03;100.00;60875.16;5016854;28;46301;-83
2022/03/14 08:19:44;;;;;;;;;7.00;7.00;;;;;-146.03;100.00;60875.16;5015135;28;45422;-84
2022/03/14 08:22:10;;;;;;;;;9.00;8.75;;;;;-146.03;100.00;60875.16;5020336;28;45463;-80
2022/03/14 08:24:36;;;;;;;;;11.75;8.00;;;;;-146.03;100.00;60875.16;5002301;28;45542;-81
2022/03/14 08:27:01;;;;;;;;;7.75;7.75;;;;;-146.03;100.00;60875.16;4997525;28;45481;-82
2022/03/14 08:29:27;;;;;;;;;8.75;7.00;;;;;-146.03;100.00;60875.16;5015845;28;45520;-81
2022/03/14 08:31:52;;;;;;;;;9.00;9.00;;;;;-146.03;100.00;60875.16;5015868;28;45550;-83
2022/03/14 08:34:18;;;;;;;;;12.00;8.00;;;;;-146.03;100.00;60875.16;5015889;28;45445;-82
2022/03/14 08:36:43;;;;;;;;;7.25;6.50;;;;;-146.03;100.00;60875.16;5016164;28;45669;-83
2022/03/14 08:39:09;;;;;;;;;6.75;6.75;;;;;-146.03;100.00;60875.16;5015396;28;45461;-82
2022/03/14 08:41:40;;;;;;;;;10.75;7.75;;;;;-146.03;100.00;60875.16;5015701;28;45435;-82
2022/03/14 08:44:07;;;;;;;;;9.25;7.75;;;;;-146.03;100.00;60875.16;5013620;28;45498;-82
2022/03/14 08:46:33;;;;;;;;;9.75;7.00;;;;;-146.03;100.00;60875.16;5015265;28;45520;-82
2022/03/14 08:48:58;;;;;;;;;7.00;7.00;;;;;-146.03;100.00;60875.16;5014865;28;47940;-82
2022/03/14 08:51:25;;;;;;;;;8.00;6.75;;;;;-146.03;100.00;60875.16;5015693;28;45394;-81
2022/03/14 08:53:51;;;;;;;;;11.00;9.25;;;;;-146.03;100.00;60875.16;4995980;28;45626;-82
2022/03/14 08:56:16;;;;;;;;;11.00;9.50;;;;;-146.03;100.00;60875.16;5013415;28;46267;-81
2022/03/14 08:58:41;;;;;;;;;7.00;7.00;;;;;-146.03;100.00;60875.16;5017733;28;45406;-81
2022/03/14 09:01:10;;;;;;;;;9.50;9.50;;;;;-146.03;100.00;60875.16;5016179;28;45351;-82
2022/03/14 09:03:35;;;;;;;;;6.75;6.75;;;;;-146.03;100.00;60875.16;4996608;28;45584;-81
2022/03/14 09:06:00;;;;;;;;;7.25;7.25;;;;;-146.03;100.00;60875.16;5003277;28;52618;-81
2022/03/14 09:08:26;;;;;;;;;8.25;7.25;;;;;-146.03;100.00;60875.16;5016231;28;45412;-82
2022/03/14 09:10:53;;;;;;;;;9.25;7.00;;;;;-146.03;100.00;60875.16;5016536;28;45343;-81
2022/03/14 09:13:19;;;;;;;;;8.50;7.00;;;;;-146.03;100.00;60875.16;5014999;28;45549;-81
2022/03/14 09:15:47;;;;;;;;;7.00;7.00;;;;;-146.03;100.00;60875.16;5015472;28;45639;-84
2022/03/14 09:18:12;;;;;;;;;8.50;7.00;;;;;-146.03;100.00;60875.16;5014624;28;45506;-82
2022/03/14 09:20:38;;;;;;;;;9.00;9.00;;;;;-146.03;100.00;60875.16;5016315;28;45463;-81
2022/03/14 09:23:04;;;;;;;;;11.00;9.50;;;;;-146.03;100.00;60875.16;5015953;28;45858;-82
2022/03/14 09:25:30;;;;;;;;;9.50;9.00;;;;;-146.03;100.00;60875.16;5015512;28;46084;-82
2022/03/14 09:27:55;;;;;;;;;8.25;8.25;;;;;-146.03;100.00;60875.16;5015046;28;45436;-84
2022/03/14 09:30:22;;;;;;;;;12.50;8.75;;;;;-146.03;100.00;60875.16;5015361;28;45434;-81
2022/03/14 09:32:48;;;;;;;;;14.00;9.75;;;;;-146.03;100.00;60875.16;5015368;28;45476;-83
2022/03/14 09:35:14;;;;;;;;;11.00;10.75;;;;;-146.03;100.00;60875.16;5015593;28;46385;-83
2022/03/14 09:37:41;;;;;;;;;7.25;7.25;;;;;-146.03;100.00;60875.16;5013835;28;45460;-84
2022/03/14 09:40:10;;;;;;;;;9.50;8.25;;;;;-146.03;100.00;60875.16;5013281;28;45524;-81
2022/03/14 09:42:37;;;;;;;;;10.25;9.00;;;;;-146.03;100.00;60875.16;4994069;28;46065;-81
2022/03/14 09:45:07;;;;;;;;;9.00;9.00;;;;;-146.03;100.00;60875.16;4995344;28;48144;-81
2022/03/14 09:47:37;;;;;;;;;8.75;8.25;;;;;-146.03;100.00;60875.16;5013525;28;47284;-81
2022/03/14 09:50:07;;;;;;;;;11.50;9.75;;;;;-146.03;100.00;60875.16;5014809;28;45625;-82
2022/03/14 09:52:35;;;;;;;;;10.00;8.75;;;;;-146.03;100.00;60875.16;5014070;28;45508;-82
2022/03/14 09:55:01;;;;;;;;;12.75;9.25;;;;;-146.03;100.00;60875.16;5014343;28;47044;-82
2022/03/14 09:57:27;;;;;;;;;10.00;8.25;;;;;-146.03;100.00;60875.16;5013889;28;45399;-81
2022/03/14 09:59:54;;;;;;;;;8.50;8.50;;;;;-146.03;100.00;60875.16;4993717;28;45506;-82
2022/03/14 10:02:19;;;;;;;;;13.50;10.75;;;;;-146.03;100.00;60875.16;5015688;28;45383;-82
2022/03/14 10:04:45;;;;;;;;;8.00;8.00;;;;;-146.03;100.00;60875.16;5015389;28;46406;-82
2022/03/14 10:07:10;;;;;;;;;7.50;7.50;;;;;-146.03;100.00;60875.16;5015008;28;45525;-82
2022/03/14 10:09:36;;;;;;;;;12.25;10.75;;;;;-146.03;100.00;60875.16;5014846;28;45264;-82
2022/03/14 10:12:03;;;;;;;;;7.75;7.75;;;;;-146.03;100.00;60875.16;5015121;28;45372;-82
2022/03/14 10:14:28;;;;;;;;;9.50;6.25;;;;;-146.03;100.00;60875.16;5015147;28;45493;-82
2022/03/14 10:16:55;;;;;;;;;10.25;8.75;;;;;-146.03;100.00;60875.16;5015469;28;45260;-82
2022/03/14 10:19:20;;;;;;;;;10.00;9.00;;;;;-146.03;100.00;60875.16;5014995;28;45300;-82
2022/03/14 10:21:46;;;;;;;;;5.75;5.75;;;;;-146.03;100.00;60875.16;5015158;28;45378;-82
2022/03/14 10:24:13;;;;;;;;;10.00;8.50;;;;;-146.03;100.00;60875.16;4993815;28;46249;-82
2022/03/14 10:26:44;;;;;;;;;6.25;6.25;;;;;-146.03;100.00;60875.16;5014871;28;45413;-81
2022/03/14 10:29:12;;;;;;;;;7.00;6.00;;;;;-146.03;100.00;60875.16;5015091;28;45536;-82
2022/03/14 10:31:42;;;;;;;;;7.25;7.25;;;;;-146.03;100.00;60875.16;4995010;28;45661;-82
2022/03/14 10:34:14;;;;;;;;;7.50;5.25;;;;;-146.03;100.00;60875.16;5014578;28;45307;-82
2022/03/14 10:36:48;;;;;;;;;7.50;7.50;;;;;-146.03;100.00;60875.16;5014067;28;45564;-82
2022/03/14 10:39:27;;;;;;;;;6.75;6.75;;;;;-146.03;100.00;60875.16;5014050;28;45379;-82
2022/03/14 10:42:07;;;;;;;;;7.50;6.25;;;;;-146.03;100.00;60875.16;4996686;28;45521;-82
2022/03/14 10:44:36;;;;;;;;;9.25;7.75;;;;;-146.03;100.00;60875.16;5014140;28;45644;-82
2022/03/14 10:47:05;;;;;;;;;8.50;6.00;;;;;-146.03;100.00;60875.16;5015319;28;45478;-82
2022/03/14 10:49:35;;;;;;;;;5.00;5.00;;;;;-146.03;100.00;60875.16;5013762;28;45415;-82
2022/03/14 10:52:03;;;;;;;;;8.75;6.75;;;;;-146.03;100.00;60875.16;5014102;28;45395;-82
2022/03/14 10:54:30;;;;;;;;;8.00;5.75;;;;;-146.03;100.00;60875.16;5013844;28;47711;-82
2022/03/14 10:57:09;;;;;;;;;8.75;6.25;;;;;-146.03;100.00;60875.16;5014341;28;45497;-82
2022/03/14 10:59:36;;;;;;;;;7.75;5.00;;;;;-146.03;100.00;60875.16;5014270;28;45588;-82
2022/03/14 11:02:04;;;;;;;;;3.00;3.00;;;;;-146.03;100.00;60875.16;5014339;28;45561;-81